Angermuende, Germany

9:49 PM CEST on April 23, 2017 (GMT +0200)
Hoher Steinweg | | Change Station

Elev 164 ft 53.02 °N, 14.00 °E | Updated 6 minutes ago

Partly Cloudy
Partly Cloudy
42.8 °F
Feels Like 43 °F
N
1.2
Wind Variable Wind from WNW
Gusts 4.3 mph

Today
High -- | Low -- °F
--% Chance of Precip.
Yesterday
High -- | Low -- °F
Precip. -- in
Pressure 30.09 in
Visibility 6.2 miles
Clouds Few 4000 ft
Scattered Clouds 6000 ft
Windchill 43 °F
Dew Point 34 °F
Humidity 72%
Rainfall 0.00 in
Snow Depth Not available.
5:47 AM 8:18 PM
Waning Crescent, 10% visible
METAR EDDT 231920Z 29007KT 9999 FEW040 SCT060 06/00 Q1019 NOSIG
Pressure 30.09 in
Visibility 6.2 miles
Clouds Few 4000 ft
Scattered Clouds 6000 ft
Windchill 43 °F
Dew Point 34 °F
Humidity 72%
Rainfall 0.00 in
Snow Depth Not available.
5:47 AM 8:18 PM
Waning Crescent, 10% visible
METAR EDDT 231920Z 29007KT 9999 FEW040 SCT060 06/00 Q1019 NOSIG

Get Severe Weather Alerts

Thanks for signing up!

Be on the lookout for a verification email in your inbox.

You'll start receiving the daily forecast at 8 AM.

×

10-Day Weather Forecast

×

Almanac

Astronomy

Apr. 23, 2017 Rise Set
Actual Time
Civil Twilight
Nautical Twilight
Astronomical Twilight
Moon
Length of Visible Light
Length of Day
Tomorrow will be .
, % of the Moon is Illuminated

Today's Extremes

Country Highs Country Lows

Community

WunderPhotos

WunderBlog® & News

Nearby

Air Quality

  Air Quality AQ Index Pollutant
Not available.

Snow Depth

Station Depth Elevation

Earthquake Activity

City Distance Mag. Time & Date
Minimum magnitude displayed is 2.5.

Coastal Water Temperatures

Place Temperature

Stations

Nearby Weather Stations

Station Location Temp. Windchill Dew Point Humidity Wind Precip. Elev Updated Type